Time;durP1;ratioP1;P1;durP2;ratioP2;P2;SDS_P1;SDS_P2;PMS_P1;PMS_P2;Temp;Humidity;BMP_temperature;BMP_pressure;BME280_temperature;BME280_humidity;BME280_pressure;Samples;Min_cycle;Max_cycle;Signal;HPM_P1;HPM_P2
2021/06/30 00:00:32;;;;;;;;;10.33;9.33;;;;;16.70;76.37;101070.63;5034669;28;45437;-63
2021/06/30 00:02:58;;;;;;;;;14.00;12.67;;;;;16.73;76.34;101066.84;5035281;28;45422;-63
2021/06/30 00:05:23;;;;;;;;;10.00;8.00;;;;;16.74;76.32;101065.84;5034798;28;45449;-63
2021/06/30 00:07:48;;;;;;;;;11.33;10.00;;;;;16.79;76.47;101066.25;5033902;28;45441;-65
2021/06/30 00:10:15;;;;;;;;;14.67;12.67;;;;;16.79;76.54;101067.09;5034355;28;45773;-64
2021/06/30 00:12:41;;;;;;;;;8.00;8.00;;;;;16.80;76.33;101065.25;5034173;28;45637;-63
2021/06/30 00:15:11;;;;;;;;;15.33;12.33;;;;;16.75;76.46;101067.50;5033876;28;45434;-62
2021/06/30 00:17:36;;;;;;;;;17.00;11.33;;;;;16.74;76.64;101065.84;5034447;28;45485;-64
2021/06/30 00:20:05;;;;;;;;;15.00;12.00;;;;;16.74;77.19;101057.91;5030370;28;45482;-63
2021/06/30 00:22:32;;;;;;;;;19.33;14.00;;;;;16.71;77.14;101056.38;5013357;28;45706;-64
2021/06/30 00:24:57;;;;;;;;;15.67;13.67;;;;;16.69;77.12;101055.66;5014479;28;46162;-63
2021/06/30 00:27:22;;;;;;;;;16.00;10.67;;;;;16.71;77.08;101060.81;5014787;28;45442;-64
2021/06/30 00:29:48;;;;;;;;;11.67;9.00;;;;;16.67;77.18;101058.47;5014192;28;45387;-66
2021/06/30 00:32:13;;;;;;;;;13.33;12.33;;;;;16.62;77.50;101058.09;5014672;28;45622;-64
2021/06/30 00:34:39;;;;;;;;;12.00;10.33;;;;;16.65;77.28;101060.44;5014268;28;45525;-64
2021/06/30 00:37:04;;;;;;;;;12.33;10.67;;;;;16.63;77.87;101062.41;5014628;28;45426;-63
2021/06/30 00:39:29;;;;;;;;;14.33;11.33;;;;;16.61;77.59;101061.69;5014770;28;45794;-64
2021/06/30 00:41:57;;;;;;;;;14.33;13.33;;;;;16.60;78.05;101059.19;5014441;28;45588;-62
2021/06/30 00:44:23;;;;;;;;;10.00;10.00;;;;;16.60;77.74;101057.38;5013735;28;46210;-63
2021/06/30 00:46:48;;;;;;;;;19.00;13.00;;;;;16.60;77.99;101060.03;5015138;28;45938;-62
2021/06/30 00:49:14;;;;;;;;;11.33;9.67;;;;;16.62;77.91;101055.44;5031179;28;45331;-63
2021/06/30 00:51:39;;;;;;;;;11.33;11.00;;;;;16.65;77.96;101060.44;5034221;28;45551;-63
2021/06/30 00:54:05;;;;;;;;;11.67;9.00;;;;;16.65;77.84;101060.44;5034605;28;46547;-63
2021/06/30 00:56:30;;;;;;;;;13.00;10.33;;;;;16.65;77.76;101052.47;5033257;28;45489;-63
2021/06/30 00:59:00;;;;;;;;;9.00;6.67;;;;;16.63;77.21;101054.44;5032734;28;45442;-63
2021/06/30 01:01:27;;;;;;;;;7.67;7.67;;;;;16.60;77.45;101057.38;5033234;28;45450;-62
2021/06/30 01:03:53;;;;;;;;;8.00;7.00;;;;;16.59;77.25;101049.56;5029196;28;46436;-67
2021/06/30 01:06:19;;;;;;;;;7.00;7.00;;;;;16.64;76.99;101053.47;5033512;28;45471;-65
2021/06/30 01:08:46;;;;;;;;;6.67;6.00;;;;;16.72;76.89;101060.69;5032872;28;45449;-67
2021/06/30 01:11:13;;;;;;;;;7.00;6.00;;;;;16.74;76.80;101055.25;5032558;28;45572;-71
2021/06/30 01:13:40;;;;;;;;;7.67;5.00;;;;;16.71;76.75;101051.06;5018955;28;47199;-67
2021/06/30 01:16:06;;;;;;;;;10.00;7.00;;;;;16.73;76.53;101058.88;5031717;28;45588;-66
2021/06/30 01:18:33;;;;;;;;;6.00;3.67;;;;;16.68;76.43;101054.00;5033679;28;45572;-68
2021/06/30 01:21:00;;;;;;;;;7.00;5.00;;;;;16.71;76.94;101053.72;5024321;28;45545;-66
2021/06/30 01:23:27;;;;;;;;;5.00;4.00;;;;;16.71;77.15;101064.34;5026820;28;47917;-66
2021/06/30 01:25:53;;;;;;;;;7.33;6.33;;;;;16.70;77.00;101059.16;5033979;28;45323;-67
2021/06/30 01:28:20;;;;;;;;;5.33;5.00;;;;;16.69;77.10;101065.47;5034768;28;45470;-67
2021/06/30 01:30:47;;;;;;;;;10.00;7.33;;;;;16.70;77.24;101061.81;5034094;28;45414;-68
2021/06/30 01:33:13;;;;;;;;;7.33;6.33;;;;;16.72;76.94;101054.53;5028973;28;46559;-70
2021/06/30 01:35:39;;;;;;;;;7.00;5.00;;;;;16.67;77.21;101050.53;5026844;28;45395;-70
2021/06/30 01:38:04;;;;;;;;;7.33;6.33;;;;;16.62;77.74;101052.78;5035190;28;45402;-68
2021/06/30 01:40:31;;;;;;;;;10.00;7.00;;;;;16.61;77.74;101048.44;5033908;28;45525;-70
2021/06/30 01:42:57;;;;;;;;;5.00;4.00;;;;;16.59;77.86;101050.44;5020747;28;46191;-68
2021/06/30 01:45:23;;;;;;;;;6.33;5.33;;;;;16.54;77.99;101052.69;5014851;28;45367;-69
2021/06/30 01:47:48;;;;;;;;;9.33;5.00;;;;;16.51;78.07;101047.66;5014593;28;45478;-69
2021/06/30 01:50:15;;;;;;;;;8.00;6.00;;;;;16.49;77.98;101045.16;5023536;28;45573;-67
2021/06/30 01:52:42;;;;;;;;;8.00;5.33;;;;;16.50;78.06;101056.56;5023023;28;46911;-69
2021/06/30 01:55:12;;;;;;;;;7.33;7.33;;;;;16.46;78.03;101049.88;5013795;28;45449;-69
2021/06/30 01:57:39;;;;;;;;;2.00;2.00;;;;;16.45;78.28;101056.16;5014811;28;45285;-69
2021/06/30 02:00:05;;;;;;;;;7.67;6.33;;;;;16.40;78.47;101053.13;5020516;28;45288;-76
2021/06/30 02:02:31;;;;;;;;;7.00;5.33;;;;;16.38;78.21;101058.56;5043578;28;46166;-75
2021/06/30 02:05:12;;;;;;;;;9.67;5.00;;;;;16.41;78.77;101057.44;5031355;28;45509;-74
2021/06/30 02:07:39;;;;;;;;;7.67;5.00;;;;;16.41;78.64;101058.28;5013894;28;45615;-71
2021/06/30 02:10:08;;;;;;;;;7.00;5.67;;;;;16.40;78.74;101059.28;5013907;28;45496;-73
2021/06/30 02:12:33;;;;;;;;;6.33;5.00;;;;;16.41;78.53;101057.44;5017243;28;45632;-67
2021/06/30 02:14:59;;;;;;;;;4.67;4.67;;;;;16.40;78.52;101055.75;5017966;28;45584;-71
2021/06/30 02:17:24;;;;;;;;;5.00;5.00;;;;;16.39;78.27;101054.13;5023230;28;45675;-75
2021/06/30 02:19:50;;;;;;;;;6.00;6.00;;;;;16.38;78.52;101057.75;5031618;28;45518;-75
2021/06/30 02:22:18;;;;;;;;;6.00;6.00;;;;;16.33;78.69;101056.38;5017670;28;45462;-75
2021/06/30 02:24:44;;;;;;;;;5.00;5.00;;;;;16.33;78.58;101056.38;5017728;28;45532;-76
2021/06/30 02:27:11;;;;;;;;;8.00;7.00;;;;;16.34;78.69;101060.66;5023264;28;45422;-75
2021/06/30 02:29:37;;;;;;;;;11.00;7.00;;;;;16.33;79.11;101056.38;5037099;28;45357;-74
2021/06/30 02:32:03;;;;;;;;;9.00;7.33;;;;;16.33;78.88;101072.28;5035722;28;46566;-76
2021/06/30 02:34:30;;;;;;;;;8.33;6.67;;;;;16.33;78.95;101066.13;5035904;28;45471;-71
2021/06/30 02:36:56;;;;;;;;;7.00;7.00;;;;;16.33;79.12;101066.13;5020092;28;45303;-74
2021/06/30 02:39:21;;;;;;;;;7.33;6.00;;;;;16.33;78.98;101066.97;5017388;28;45347;-72
2021/06/30 02:41:47;;;;;;;;;8.33;7.00;;;;;16.33;78.92;101058.16;5018347;28;45523;-72
2021/06/30 02:44:15;;;;;;;;;11.00;9.00;;;;;16.33;78.19;101064.31;5025908;28;45446;-70
2021/06/30 02:46:41;;;;;;;;;10.00;8.33;;;;;16.32;78.29;101060.00;5016299;28;45442;-72
2021/06/30 02:49:07;;;;;;;;;12.00;7.00;;;;;16.38;78.89;101073.66;5026089;28;45597;-75
2021/06/30 02:51:32;;;;;;;;;8.00;8.00;;;;;16.39;78.20;101070.03;5044126;28;46186;-72
2021/06/30 02:53:58;;;;;;;;;10.00;9.00;;;;;16.41;77.61;101062.75;5027994;28;45339;-76
2021/06/30 02:56:24;;;;;;;;;8.67;8.67;;;;;16.42;77.67;101072.38;5036420;28;45487;-74
2021/06/30 02:58:49;;;;;;;;;9.67;8.00;;;;;16.38;78.23;101071.00;5030316;28;45427;-72
2021/06/30 03:01:15;;;;;;;;;10.00;7.00;;;;;16.37;78.30;101071.97;5023815;28;46265;-74
2021/06/30 03:03:40;;;;;;;;;9.33;8.00;;;;;16.36;78.31;101076.44;5030859;28;45438;-69
2021/06/30 03:06:05;;;;;;;;;9.67;7.33;;;;;16.36;78.13;101078.25;5023285;28;45687;-68
2021/06/30 03:08:31;;;;;;;;;9.00;7.33;;;;;16.34;78.21;101076.56;5016323;28;45522;-69
2021/06/30 03:10:56;;;;;;;;;12.00;10.00;;;;;16.34;78.52;101073.09;5017619;28;46376;-68
2021/06/30 03:13:22;;;;;;;;;8.00;7.00;;;;;16.33;78.61;101072.28;5019973;28;45332;-67
2021/06/30 03:15:48;;;;;;;;;13.67;12.67;;;;;16.29;78.46;101078.00;5035688;28;45402;-66
2021/06/30 03:18:14;;;;;;;;;12.67;10.00;;;;;16.29;78.68;101081.47;5036854;28;45664;-66
2021/06/30 03:20:39;;;;;;;;;12.67;11.67;;;;;16.28;78.54;101084.25;5026422;28;47552;-67
2021/06/30 03:23:05;;;;;;;;;13.33;12.00;;;;;16.29;78.07;101085.94;5015630;28;45818;-68
2021/06/30 03:25:30;;;;;;;;;10.67;9.00;;;;;16.25;77.84;101088.03;5016874;28;45383;-68
2021/06/30 03:27:56;;;;;;;;;14.00;11.00;;;;;16.23;77.11;101087.34;5016765;28;45445;-68
2021/06/30 03:30:21;;;;;;;;;13.00;10.00;;;;;16.23;77.52;101092.66;5028214;28;45407;-66
2021/06/30 03:32:47;;;;;;;;;9.67;9.67;;;;;16.24;77.21;101094.34;5036250;28;45386;-67
2021/06/30 03:35:12;;;;;;;;;11.33;10.33;;;;;16.24;77.25;101088.19;5036437;28;45566;-69
2021/06/30 03:37:38;;;;;;;;;14.67;10.67;;;;;16.20;77.03;101087.63;5036381;28;45410;-67
2021/06/30 03:40:04;;;;;;;;;10.67;9.33;;;;;16.18;77.64;101084.28;5026193;28;46307;-66
2021/06/30 03:42:30;;;;;;;;;13.00;11.00;;;;;16.17;77.27;101087.91;5016277;28;45466;-68
2021/06/30 03:44:56;;;;;;;;;12.33;12.00;;;;;16.15;77.38;101089.84;5016797;28;45320;-66
2021/06/30 03:47:21;;;;;;;;;13.33;9.33;;;;;16.14;77.20;101096.16;5016382;28;45341;-68
2021/06/30 03:49:47;;;;;;;;;16.00;13.33;;;;;16.12;77.56;101104.22;5014849;28;45582;-66
2021/06/30 03:52:12;;;;;;;;;10.33;10.33;;;;;16.11;77.38;101099.06;5015998;28;45369;-67
2021/06/30 03:54:38;;;;;;;;;14.33;11.67;;;;;16.11;77.55;101099.06;5016376;28;45671;-68
2021/06/30 03:57:03;;;;;;;;;11.67;10.67;;;;;16.11;77.36;101099.06;5027148;28;45427;-67
2021/06/30 03:59:29;;;;;;;;;19.00;12.67;;;;;16.12;77.48;101095.47;5035762;28;46614;-67
2021/06/30 04:01:54;;;;;;;;;14.00;12.33;;;;;16.10;77.52;101102.69;5034839;28;45508;-67
2021/06/30 04:04:20;;;;;;;;;10.67;9.00;;;;;16.10;76.97;101105.34;5036023;28;45387;-67
2021/06/30 04:06:46;;;;;;;;;16.67;15.67;;;;;16.13;76.82;101102.44;5035833;28;45460;-66
2021/06/30 04:09:12;;;;;;;;;14.33;13.33;;;;;16.12;76.83;101104.22;5035908;28;46490;-66
2021/06/30 04:11:38;;;;;;;;;18.67;13.33;;;;;16.11;77.14;101094.63;5035547;28;45346;-67
2021/06/30 04:14:04;;;;;;;;;13.67;12.00;;;;;16.11;76.90;101096.44;5035653;28;45405;-66
2021/06/30 04:16:29;;;;;;;;;16.00;13.00;;;;;16.12;76.59;101100.75;5036016;28;45456;-69
2021/06/30 04:18:55;;;;;;;;;16.67;13.67;;;;;16.10;76.95;101102.69;5033143;28;48224;-68
2021/06/30 04:21:21;;;;;;;;;17.00;14.00;;;;;16.08;76.92;101099.38;5015471;28;45397;-68
2021/06/30 04:23:46;;;;;;;;;19.67;19.67;;;;;16.08;77.00;101099.38;5014390;28;45407;-68
2021/06/30 04:26:12;;;;;;;;;23.67;22.00;;;;;16.05;77.00;101100.50;5015541;28;45443;-68
2021/06/30 04:28:37;;;;;;;;;23.00;17.00;;;;;16.05;77.15;101094.34;5015536;28;46156;-68
2021/06/30 04:31:02;;;;;;;;;17.67;15.00;;;;;16.08;77.14;101109.97;5014097;28;45624;-68
2021/06/30 04:33:31;;;;;;;;;17.67;14.67;;;;;16.08;76.97;101108.16;5016253;28;45468;-68
2021/06/30 04:35:57;;;;;;;;;16.33;15.00;;;;;16.07;77.00;101109.13;5015553;28;45470;-69
2021/06/30 04:38:25;;;;;;;;;17.00;15.00;;;;;16.10;76.94;101113.28;5015107;28;45671;-68
2021/06/30 04:40:51;;;;;;;;;15.33;14.33;;;;;16.10;77.16;101102.69;5015603;28;45473;-68
2021/06/30 04:43:17;;;;;;;;;16.00;14.33;;;;;16.12;76.98;101114.00;5015544;28;45324;-68
2021/06/30 04:45:43;;;;;;;;;13.67;12.67;;;;;16.12;77.31;101111.34;5015328;28;45476;-68
2021/06/30 04:48:08;;;;;;;;;13.00;13.00;;;;;16.14;77.05;101112.06;5030652;28;46749;-68
2021/06/30 04:50:34;;;;;;;;;15.33;12.00;;;;;16.12;76.57;101112.19;5014827;28;45328;-68
2021/06/30 04:52:59;;;;;;;;;15.33;11.00;;;;;16.12;77.11;101114.00;5013937;28;45371;-67
2021/06/30 04:55:24;;;;;;;;;16.00;12.00;;;;;16.09;76.80;101103.69;5015041;28;45403;-67
2021/06/30 04:57:50;;;;;;;;;13.33;12.00;;;;;16.11;77.34;101110.53;5015096;28;46401;-68
2021/06/30 05:00:16;;;;;;;;;10.67;10.67;;;;;16.13;77.04;101107.72;5026243;28;45488;-67
2021/06/30 05:02:41;;;;;;;;;10.67;9.00;;;;;16.14;77.05;101114.72;5015927;28;45380;-67
2021/06/30 05:05:08;;;;;;;;;15.00;13.67;;;;;16.14;76.98;101112.88;5014787;28;45328;-67
2021/06/30 05:07:33;;;;;;;;;18.00;13.00;;;;;16.15;77.33;101117.22;5014796;28;45396;-67
2021/06/30 05:09:58;;;;;;;;;16.00;12.00;;;;;16.15;76.91;101111.06;5015758;28;45410;-69
2021/06/30 05:12:24;;;;;;;;;9.00;9.00;;;;;16.16;77.01;101118.03;5030163;28;45363;-68
2021/06/30 05:14:49;;;;;;;;;12.00;10.33;;;;;16.19;76.96;101115.13;5013575;28;45502;-68
2021/06/30 05:17:15;;;;;;;;;11.00;9.00;;;;;16.20;76.64;101121.25;5014545;28;45867;-68
2021/06/30 05:19:40;;;;;;;;;16.33;11.00;;;;;16.21;77.06;101121.09;5014235;28;45721;-67
2021/06/30 05:22:06;;;;;;;;;10.00;8.33;;;;;16.21;76.78;101122.94;5014654;28;45430;-67
2021/06/30 05:24:31;;;;;;;;;10.67;8.33;;;;;16.20;76.78;101124.72;5014912;28;45576;-68
2021/06/30 05:26:57;;;;;;;;;8.67;8.67;;;;;16.21;76.74;101123.75;5031301;28;45439;-69
2021/06/30 05:29:22;;;;;;;;;10.67;9.67;;;;;16.20;77.15;101130.03;5033565;28;45611;-69
2021/06/30 05:31:47;;;;;;;;;9.00;8.00;;;;;16.19;77.27;101128.38;5033870;28;45526;-69
2021/06/30 05:34:13;;;;;;;;;10.00;8.00;;;;;16.18;77.13;101126.69;5033871;28;45418;-69
2021/06/30 05:36:40;;;;;;;;;7.00;6.00;;;;;16.20;76.64;101127.38;5033105;28;46197;-68
2021/06/30 05:39:05;;;;;;;;;6.67;6.67;;;;;16.19;77.04;101136.34;5034500;28;45542;-70
2021/06/30 05:41:31;;;;;;;;;9.00;7.67;;;;;16.21;76.78;101142.31;5033313;28;45347;-70
2021/06/30 05:43:58;;;;;;;;;8.33;7.00;;;;;16.19;77.13;101141.63;5026862;28;45400;-72
2021/06/30 05:46:23;;;;;;;;;6.33;6.33;;;;;16.19;77.04;101138.13;5016213;28;45519;-71
2021/06/30 05:48:49;;;;;;;;;6.00;6.00;;;;;16.20;76.78;101135.31;5016383;28;45284;-71
2021/06/30 05:51:15;;;;;;;;;8.33;7.33;;;;;16.21;76.87;101137.00;5018087;28;45296;-72
2021/06/30 05:53:40;;;;;;;;;9.67;7.67;;;;;16.20;77.07;101137.16;5016794;28;45436;-70
2021/06/30 05:56:07;;;;;;;;;7.33;6.67;;;;;16.16;77.31;101145.41;5018215;28;46176;-71
2021/06/30 05:58:33;;;;;;;;;8.00;7.00;;;;;16.15;77.44;101137.56;5017683;28;45312;-73
2021/06/30 06:00:58;;;;;;;;;9.33;7.00;;;;;16.12;77.25;101140.50;5031929;28;45778;-75
2021/06/30 06:03:24;;;;;;;;;7.00;7.00;;;;;16.11;77.30;101144.13;5019688;28;45505;-73
2021/06/30 06:05:49;;;;;;;;;10.00;7.67;;;;;16.09;77.54;101144.28;5017383;28;45233;-73
2021/06/30 06:08:16;;;;;;;;;9.00;8.00;;;;;16.07;77.54;101153.34;5019112;28;45387;-76
2021/06/30 06:10:42;;;;;;;;;8.67;8.67;;;;;16.03;77.79;101151.94;5018651;28;45374;-74
2021/06/30 06:13:07;;;;;;;;;7.67;7.33;;;;;16.00;77.93;101156.53;5017996;28;45421;-73
2021/06/30 06:15:33;;;;;;;;;11.33;8.33;;;;;15.97;77.85;101154.19;5017558;28;46155;-74
2021/06/30 06:17:58;;;;;;;;;14.33;9.33;;;;;15.99;78.00;101148.72;5024686;28;45315;-73
2021/06/30 06:20:23;;;;;;;;;24.00;20.67;;;;;15.98;77.91;101163.81;5029533;28;45357;-71
2021/06/30 06:22:49;;;;;;;;;20.33;13.67;;;;;15.95;77.60;101169.38;5021867;28;45386;-70
2021/06/30 06:25:15;;;;;;;;;41.00;34.00;;;;;15.94;77.57;101164.22;5027092;28;48005;-72
2021/06/30 06:27:41;;;;;;;;;12.67;11.33;;;;;15.92;77.56;101169.66;5030121;28;45470;-69
2021/06/30 06:30:09;;;;;;;;;11.00;8.00;;;;;15.89;77.77;101169.91;5019702;28;45321;-71
2021/06/30 06:32:36;;;;;;;;;23.00;17.00;;;;;15.90;78.25;101173.41;5019910;28;45422;-72
2021/06/30 06:35:04;;;;;;;;;6.00;3.33;;;;;15.88;77.82;101176.19;5004691;28;46375;-70
2021/06/30 06:37:30;;;;;;;;;16.00;10.67;;;;;15.90;78.15;101168.94;5036215;28;45505;-70
2021/06/30 06:39:56;;;;;;;;;12.67;9.00;;;;;15.94;77.43;101175.63;5025958;28;45553;-71
2021/06/30 06:42:23;;;;;;;;;10.00;8.67;;;;;15.96;77.04;101179.00;5024998;28;45358;-72
2021/06/30 06:44:48;;;;;;;;;18.67;16.33;;;;;15.98;76.96;101179.69;5025434;28;45540;-71
2021/06/30 06:47:14;;;;;;;;;12.33;9.67;;;;;15.99;77.46;101185.81;5028212;28;45253;-71
2021/06/30 06:49:39;;;;;;;;;24.33;16.33;;;;;15.98;77.91;101179.69;5027769;28;45513;-71
2021/06/30 06:52:05;;;;;;;;;9.00;9.00;;;;;15.98;77.48;101179.69;5023586;28;45616;-74
2021/06/30 06:54:30;;;;;;;;;6.33;5.00;;;;;15.99;77.48;101186.66;5024553;28;46325;-77
2021/06/30 06:56:56;;;;;;;;;8.33;5.00;;;;;15.94;76.27;101188.06;5023930;28;45514;-74
2021/06/30 06:59:21;;;;;;;;;10.67;7.00;;;;;15.90;77.13;101187.47;5023999;28;45385;-69
2021/06/30 07:01:47;;;;;;;;;9.67;8.00;;;;;15.90;77.61;101190.13;5025179;28;45636;-71
2021/06/30 07:04:12;;;;;;;;;10.33;7.00;;;;;15.92;77.59;101192.63;5027231;28;45312;-71
2021/06/30 07:06:38;;;;;;;;;9.67;9.00;;;;;15.95;77.92;101182.59;5024031;28;45513;-70
2021/06/30 07:09:04;;;;;;;;;9.67;8.00;;;;;15.99;77.16;101191.13;5025442;28;45414;-70
2021/06/30 07:11:29;;;;;;;;;8.67;7.00;;;;;16.01;77.65;101186.53;5036161;28;45572;-72
2021/06/30 07:13:55;;;;;;;;;6.67;6.00;;;;;16.04;77.59;101190.72;5026935;28;46868;-71
2021/06/30 07:16:20;;;;;;;;;9.00;8.00;;;;;16.09;77.64;101194.63;5026048;28;45541;-72
2021/06/30 07:18:46;;;;;;;;;14.00;10.33;;;;;16.11;77.57;101190.03;5021707;28;45451;-71
2021/06/30 07:21:12;;;;;;;;;15.00;15.00;;;;;16.14;76.91;101194.22;5022859;28;45332;-72
2021/06/30 07:23:38;;;;;;;;;15.67;13.67;;;;;16.13;77.20;101198.66;5029170;28;45395;-71
2021/06/30 07:26:05;;;;;;;;;15.00;15.00;;;;;16.15;76.63;101196.72;5026803;28;45568;-66
2021/06/30 07:28:30;;;;;;;;;15.00;14.00;;;;;16.16;76.93;101200.19;5021538;28;45514;-76
2021/06/30 07:30:56;;;;;;;;;14.33;11.67;;;;;16.19;77.16;101199.94;5025836;28;45576;-76
2021/06/30 07:33:22;;;;;;;;;10.67;10.00;;;;;16.21;76.99;101208.56;5003288;28;46189;-69
2021/06/30 07:35:48;;;;;;;;;13.33;10.00;;;;;16.24;76.64;101200.34;5012031;28;45393;-75
2021/06/30 07:38:14;;;;;;;;;12.67;11.67;;;;;16.29;76.81;101203.41;5047102;28;45449;-69
2021/06/30 07:40:39;;;;;;;;;13.33;11.00;;;;;16.32;76.65;101200.50;5015602;28;45566;-70
2021/06/30 07:43:06;;;;;;;;;18.67;16.67;;;;;16.39;76.65;101214.00;5007190;28;46123;-67
2021/06/30 07:45:32;;;;;;;;;11.67;9.67;;;;;16.45;76.45;101212.59;5030279;28;45377;-67
2021/06/30 07:47:58;;;;;;;;;10.33;9.33;;;;;16.51;76.66;101217.34;5016772;28;45372;-69
2021/06/30 07:50:27;;;;;;;;;13.67;13.67;;;;;16.55;76.88;101220.56;5000653;28;45277;-68
2021/06/30 07:52:52;;;;;;;;;9.00;9.00;;;;;16.57;76.36;101222.09;5015489;28;46026;-70
2021/06/30 07:55:20;;;;;;;;;8.33;8.33;;;;;16.61;76.34;101212.88;5014896;28;45379;-72
2021/06/30 07:57:46;;;;;;;;;10.67;8.33;;;;;16.64;75.55;101211.75;5013251;28;45949;-70
2021/06/30 08:00:12;;;;;;;;;11.00;9.00;;;;;16.66;75.23;101215.94;5012363;28;45394;-76
2021/06/30 08:02:38;;;;;;;;;11.33;9.00;;;;;16.71;75.17;101214.69;5005198;28;46380;-73
2021/06/30 08:05:05;;;;;;;;;9.67;8.00;;;;;16.76;74.99;101220.38;5024903;28;45458;-71
2021/06/30 08:07:30;;;;;;;;;8.33;6.67;;;;;16.80;75.33;101205.84;5035904;28;45410;-69
2021/06/30 08:09:55;;;;;;;;;13.33;11.00;;;;;16.85;74.58;101203.59;5017622;28;46159;-71
2021/06/30 08:12:21;;;;;;;;;9.33;9.00;;;;;16.94;74.34;101204.59;4999152;28;46269;-69
2021/06/30 08:14:47;;;;;;;;;16.33;13.67;;;;;17.02;74.33;101201.22;5020636;28;45989;-68
2021/06/30 08:17:13;;;;;;;;;10.67;9.33;;;;;17.10;74.26;101206.63;5015456;28;45421;-67
2021/06/30 08:19:38;;;;;;;;;48.00;37.67;;;;;17.21;74.37;101203.81;5015299;28;45399;-69
2021/06/30 08:22:09;;;;;;;;;9.67;9.00;;;;;17.38;74.12;101209.34;5014216;28;45556;-68
2021/06/30 08:24:35;;;;;;;;;10.00;8.67;;;;;17.51;73.89;101207.16;5015281;28;45552;-69
2021/06/30 08:27:02;;;;;;;;;19.00;17.00;;;;;17.60;73.72;101202.81;5006640;28;45482;-71
2021/06/30 08:29:27;;;;;;;;;13.00;10.67;;;;;17.62;73.50;101211.47;5008292;28;45322;-70
2021/06/30 08:31:53;;;;;;;;;17.00;15.33;;;;;17.68;73.40;101207.38;5025119;28;45391;-68
2021/06/30 08:34:18;;;;;;;;;22.00;17.67;;;;;17.74;72.22;101209.44;5012455;28;45426;-70
2021/06/30 08:36:43;;;;;;;;;12.67;12.67;;;;;17.77;72.10;101215.28;5001954;28;45352;-69
2021/06/30 08:39:10;;;;;;;;;13.33;11.33;;;;;17.82;71.67;101212.16;5016244;28;45635;-68
2021/06/30 08:41:36;;;;;;;;;9.67;9.33;;;;;17.89;72.33;101213.25;5015115;28;45860;-69
2021/06/30 08:44:01;;;;;;;;;14.00;14.00;;;;;17.97;73.10;101216.03;5014917;28;45403;-69
2021/06/30 08:46:27;;;;;;;;;15.00;15.00;;;;;18.05;72.43;101217.09;4999804;28;45387;-73
2021/06/30 08:48:57;;;;;;;;;19.00;18.00;;;;;18.08;72.47;101216.78;5014985;28;45358;-70
2021/06/30 08:51:28;;;;;;;;;14.33;10.67;;;;;18.10;72.47;101214.81;5003153;28;46325;-71
2021/06/30 08:53:55;;;;;;;;;11.33;9.33;;;;;18.12;72.36;101218.16;5010733;28;45437;-71
2021/06/30 08:56:30;;;;;;;;;15.67;13.00;;;;;18.10;72.33;101215.66;5013995;28;45438;-72
2021/06/30 08:58:56;;;;;;;;;10.00;9.00;;;;;18.12;72.05;101211.03;5014860;28;45489;-73
2021/06/30 09:01:25;;;;;;;;;12.33;10.00;;;;;18.16;71.50;101208.88;5014752;28;46151;-76
2021/06/30 09:03:53;;;;;;;;;14.00;9.67;;;;;18.24;71.55;101211.63;5014954;28;45374;-68
2021/06/30 09:06:19;;;;;;;;;11.67;10.67;;;;;18.34;71.76;101211.53;5014310;28;45598;-68
2021/06/30 09:08:47;;;;;;;;;9.67;9.00;;;;;18.44;71.69;101211.47;5014921;28;45317;-67
2021/06/30 09:11:20;;;;;;;;;11.33;8.33;;;;;18.53;71.44;101205.22;5014205;28;45553;-68
2021/06/30 09:13:47;;;;;;;;;14.33;10.00;;;;;18.67;71.35;101216.28;5001237;28;45507;-72
2021/06/30 09:16:13;;;;;;;;;13.67;11.00;;;;;18.74;70.81;101212.84;5011544;28;45429;-72
2021/06/30 09:18:41;;;;;;;;;11.33;10.00;;;;;18.79;69.98;101212.38;5013289;28;45576;-70
2021/06/30 09:21:29;;;;;;;;;14.33;11.00;;;;;18.84;70.18;101206.56;5015556;28;45360;-70
2021/06/30 09:24:18;;;;;;;;;8.33;6.00;;;;;18.84;69.12;101217.22;5035494;28;45380;-72
2021/06/30 09:26:49;;;;;;;;;12.00;10.00;;;;;18.83;69.34;101205.75;5010730;28;46105;-70
2021/06/30 09:29:17;;;;;;;;;11.33;10.00;;;;;18.85;68.38;101209.09;5026338;28;45653;-68
2021/06/30 09:31:45;;;;;;;;;13.33;10.67;;;;;18.91;69.38;101216.47;5025970;28;45364;-70
2021/06/30 09:34:11;;;;;;;;;14.00;12.33;;;;;18.99;69.18;101220.19;5018046;28;45392;-69
2021/06/30 09:36:50;;;;;;;;;10.67;9.67;;;;;19.03;68.37;101217.06;5017147;28;45454;-70
2021/06/30 09:39:15;;;;;;;;;7.00;7.00;;;;;19.00;68.44;101228.00;5037140;28;45795;-72
2021/06/30 09:41:44;;;;;;;;;7.00;5.67;;;;;18.93;68.04;101225.16;5025368;28;45548;-69
2021/06/30 09:44:21;;;;;;;;;9.33;9.33;;;;;18.88;68.42;101222.09;5032946;28;45409;-70
2021/06/30 09:46:48;;;;;;;;;20.67;14.00;;;;;18.83;69.03;101221.72;5022642;28;45412;-71
2021/06/30 09:49:20;;;;;;;;;13.33;12.00;;;;;18.78;69.00;101232.81;5020573;28;45458;-71
2021/06/30 09:52:01;;;;;;;;;11.00;9.00;;;;;18.73;68.70;101231.63;5036433;28;47316;-70
2021/06/30 09:54:31;;;;;;;;;11.33;10.00;;;;;18.69;68.70;101235.59;5028220;28;45306;-71
2021/06/30 09:57:08;;;;;;;;;14.33;11.33;;;;;18.68;68.96;101233.91;5033676;28;45377;-72
2021/06/30 09:59:37;;;;;;;;;11.67;10.33;;;;;18.66;68.83;101227.94;5032689;28;45556;-72
2021/06/30 10:02:14;;;;;;;;;16.33;10.00;;;;;18.65;69.25;101237.72;5028388;28;46752;-69
2021/06/30 10:04:57;;;;;;;;;15.67;14.67;;;;;18.70;67.96;101239.94;5023874;28;45509;-69
2021/06/30 10:07:25;;;;;;;;;12.67;10.67;;;;;18.79;70.06;101239.81;5034744;28;45292;-69
2021/06/30 10:09:51;;;;;;;;;7.33;4.00;;;;;18.93;69.17;101238.47;5024494;28;45562;-66
2021/06/30 10:12:23;;;;;;;;;8.33;8.33;;;;;19.04;68.13;101239.19;5017679;28;45422;-67
2021/06/30 10:14:49;;;;;;;;;11.33;9.00;;;;;19.03;68.20;101237.50;5017563;28;45507;-65
2021/06/30 10:17:15;;;;;;;;;15.67;11.00;;;;;19.00;68.46;101241.31;5017784;28;45260;-69
2021/06/30 10:19:42;;;;;;;;;13.00;11.00;;;;;18.89;68.23;101238.88;5021632;28;45520;-69
2021/06/30 10:22:11;;;;;;;;;10.00;8.67;;;;;18.83;68.80;101247.50;5022743;28;45465;-70
2021/06/30 10:24:38;;;;;;;;;8.00;7.00;;;;;18.80;68.38;101249.47;5035604;28;45517;-67
2021/06/30 10:27:05;;;;;;;;;12.33;9.33;;;;;18.82;68.48;101245.84;5023235;28;45460;-66
2021/06/30 10:29:33;;;;;;;;;11.33;11.33;;;;;18.86;68.37;101234.72;5033505;28;45585;-65
2021/06/30 10:32:05;;;;;;;;;10.00;8.67;;;;;18.94;65.77;101236.63;5021865;28;46200;-64
2021/06/30 10:35:04;;;;;;;;;9.00;9.00;;;;;19.05;65.90;101230.22;5027183;28;45360;-63
2021/06/30 10:37:36;;;;;;;;;15.33;14.33;;;;;19.13;66.67;101233.75;5006345;28;46258;-66
2021/06/30 10:40:14;;;;;;;;;12.00;9.00;;;;;19.16;64.79;101232.59;5026036;28;45576;-69
2021/06/30 10:42:47;;;;;;;;;10.67;9.33;;;;;19.26;65.80;101243.97;5017626;28;45602;-65
2021/06/30 10:45:12;;;;;;;;;10.00;9.67;;;;;19.20;64.76;101233.97;5001519;28;45616;-68
2021/06/30 10:47:42;;;;;;;;;9.00;6.33;;;;;19.16;65.15;101232.59;5020773;28;45449;-68
2021/06/30 10:50:16;;;;;;;;;9.33;8.33;;;;;19.11;66.36;101234.88;5034720;28;45456;-66
2021/06/30 10:52:43;;;;;;;;;8.00;8.00;;;;;19.01;65.56;101232.34;5013279;28;47274;-66
2021/06/30 10:55:36;;;;;;;;;11.67;10.00;;;;;18.88;65.64;101239.91;5024764;28;45477;-66
2021/06/30 10:58:10;;;;;;;;;11.00;11.00;;;;;18.98;65.94;101237.16;4996503;28;45417;-67
2021/06/30 11:00:37;;;;;;;;;16.33;11.67;;;;;19.03;65.27;101241.03;5024676;28;45416;-67
2021/06/30 11:03:30;;;;;;;;;11.00;8.00;;;;;19.09;63.66;101231.56;4997605;28;47831;-66
2021/06/30 11:06:19;;;;;;;;;9.33;9.33;;;;;19.21;64.90;101242.78;4982665;28;45598;-67
2021/06/30 11:08:50;;;;;;;;;11.33;9.33;;;;;19.18;64.09;101248.44;5014010;28;45495;-66
2021/06/30 11:11:28;;;;;;;;;8.00;7.00;;;;;19.12;65.67;101242.75;5023231;28;45572;-67
2021/06/30 11:13:57;;;;;;;;;9.00;8.33;;;;;19.00;64.86;101246.66;5020845;28;46289;-66
2021/06/30 11:16:44;;;;;;;;;18.67;13.00;;;;;18.95;65.07;101251.59;5019665;28;45407;-68